sensor_id;sensor_type;location;lat;lon;timestamp;P1;durP1;ratioP1;P2;durP2;ratioP2
66669;SDS011;53568;52.164;4.472;2023-08-20T00:01:05;4.39;;;4.07;;
66669;SDS011;53568;52.164;4.472;2023-08-20T00:03:34;4.56;;;4.30;;
66669;SDS011;53568;52.164;4.472;2023-08-20T00:05:59;4.54;;;4.34;;
66669;SDS011;53568;52.164;4.472;2023-08-20T00:08:25;4.66;;;4.48;;
66669;SDS011;53568;52.164;4.472;2023-08-20T00:10:51;5.10;;;4.89;;
66669;SDS011;53568;52.164;4.472;2023-08-20T00:13:16;4.74;;;4.60;;
66669;SDS011;53568;52.164;4.472;2023-08-20T00:15:42;5.72;;;5.50;;
66669;SDS011;53568;52.164;4.472;2023-08-20T00:18:08;5.50;;;5.30;;
66669;SDS011;53568;52.164;4.472;2023-08-20T00:20:34;5.52;;;5.26;;
66669;SDS011;53568;52.164;4.472;2023-08-20T00:23:00;5.18;;;5.00;;
66669;SDS011;53568;52.164;4.472;2023-08-20T00:25:26;5.64;;;5.44;;
66669;SDS011;53568;52.164;4.472;2023-08-20T00:27:51;5.58;;;5.41;;
66669;SDS011;53568;52.164;4.472;2023-08-20T00:30:17;5.81;;;5.63;;
66669;SDS011;53568;52.164;4.472;2023-08-20T00:32:42;5.67;;;5.45;;
66669;SDS011;53568;52.164;4.472;2023-08-20T00:35:08;5.72;;;5.63;;
66669;SDS011;53568;52.164;4.472;2023-08-20T00:37:34;5.74;;;5.51;;
66669;SDS011;53568;52.164;4.472;2023-08-20T00:40:00;5.82;;;5.59;;
66669;SDS011;53568;52.164;4.472;2023-08-20T00:42:26;6.12;;;5.93;;
66669;SDS011;53568;52.164;4.472;2023-08-20T00:44:52;5.75;;;5.64;;
66669;SDS011;53568;52.164;4.472;2023-08-20T00:47:18;5.76;;;5.64;;
66669;SDS011;53568;52.164;4.472;2023-08-20T00:49:45;5.91;;;5.76;;
66669;SDS011;53568;52.164;4.472;2023-08-20T00:52:12;5.98;;;5.77;;
66669;SDS011;53568;52.164;4.472;2023-08-20T00:54:41;5.46;;;5.26;;
66669;SDS011;53568;52.164;4.472;2023-08-20T00:57:07;5.56;;;5.33;;
66669;SDS011;53568;52.164;4.472;2023-08-20T00:59:33;5.71;;;5.49;;
66669;SDS011;53568;52.164;4.472;2023-08-20T01:02:00;5.70;;;5.47;;
66669;SDS011;53568;52.164;4.472;2023-08-20T01:04:28;5.11;;;4.95;;
66669;SDS011;53568;52.164;4.472;2023-08-20T01:13:10;5.23;;;4.92;;
66669;SDS011;53568;52.164;4.472;2023-08-20T01:15:36;4.97;;;4.72;;
66669;SDS011;53568;52.164;4.472;2023-08-20T01:18:01;5.34;;;4.99;;
66669;SDS011;53568;52.164;4.472;2023-08-20T01:20:29;4.94;;;4.57;;
66669;SDS011;53568;52.164;4.472;2023-08-20T01:23:09;5.24;;;4.95;;
66669;SDS011;53568;52.164;4.472;2023-08-20T01:25:50;4.81;;;4.53;;
66669;SDS011;53568;52.164;4.472;2023-08-20T01:28:38;4.42;;;4.14;;
66669;SDS011;53568;52.164;4.472;2023-08-20T01:31:06;4.17;;;3.91;;
66669;SDS011;53568;52.164;4.472;2023-08-20T01:33:33;4.40;;;4.09;;
66669;SDS011;53568;52.164;4.472;2023-08-20T01:35:59;4.68;;;4.36;;
66669;SDS011;53568;52.164;4.472;2023-08-20T01:38:25;4.53;;;4.29;;
66669;SDS011;53568;52.164;4.472;2023-08-20T01:40:51;4.34;;;4.09;;
66669;SDS011;53568;52.164;4.472;2023-08-20T01:43:16;4.44;;;4.14;;
66669;SDS011;53568;52.164;4.472;2023-08-20T01:45:42;4.60;;;4.21;;
66669;SDS011;53568;52.164;4.472;2023-08-20T01:48:07;4.33;;;3.91;;
66669;SDS011;53568;52.164;4.472;2023-08-20T01:50:33;4.37;;;3.94;;
66669;SDS011;53568;52.164;4.472;2023-08-20T01:53:00;4.33;;;3.88;;
66669;SDS011;53568;52.164;4.472;2023-08-20T01:55:26;4.40;;;3.93;;
66669;SDS011;53568;52.164;4.472;2023-08-20T01:57:51;4.69;;;4.21;;
66669;SDS011;53568;52.164;4.472;2023-08-20T02:00:16;4.46;;;4.05;;
66669;SDS011;53568;52.164;4.472;2023-08-20T02:02:42;4.14;;;3.84;;
66669;SDS011;53568;52.164;4.472;2023-08-20T02:05:07;4.28;;;3.91;;
66669;SDS011;53568;52.164;4.472;2023-08-20T02:07:33;4.36;;;3.97;;
66669;SDS011;53568;52.164;4.472;2023-08-20T02:09:59;4.16;;;3.84;;
66669;SDS011;53568;52.164;4.472;2023-08-20T02:12:25;4.05;;;3.64;;
66669;SDS011;53568;52.164;4.472;2023-08-20T02:14:51;3.91;;;3.49;;
66669;SDS011;53568;52.164;4.472;2023-08-20T02:17:17;4.08;;;3.66;;
66669;SDS011;53568;52.164;4.472;2023-08-20T02:19:43;3.90;;;3.47;;
66669;SDS011;53568;52.164;4.472;2023-08-20T02:22:08;4.38;;;3.87;;
66669;SDS011;53568;52.164;4.472;2023-08-20T02:24:33;4.15;;;3.62;;
66669;SDS011;53568;52.164;4.472;2023-08-20T02:26:59;4.19;;;3.70;;
66669;SDS011;53568;52.164;4.472;2023-08-20T02:29:24;4.29;;;3.78;;
66669;SDS011;53568;52.164;4.472;2023-08-20T02:31:50;4.03;;;3.56;;
66669;SDS011;53568;52.164;4.472;2023-08-20T02:34:15;3.62;;;3.30;;
66669;SDS011;53568;52.164;4.472;2023-08-20T02:36:41;3.65;;;3.35;;
66669;SDS011;53568;52.164;4.472;2023-08-20T02:39:07;3.83;;;3.45;;
66669;SDS011;53568;52.164;4.472;2023-08-20T02:41:33;4.15;;;3.64;;
66669;SDS011;53568;52.164;4.472;2023-08-20T02:44:01;4.12;;;3.59;;
66669;SDS011;53568;52.164;4.472;2023-08-20T02:46:27;3.81;;;3.44;;
66669;SDS011;53568;52.164;4.472;2023-08-20T02:48:52;3.82;;;3.40;;
66669;SDS011;53568;52.164;4.472;2023-08-20T02:51:18;3.97;;;3.62;;
66669;SDS011;53568;52.164;4.472;2023-08-20T02:53:43;3.88;;;3.55;;
66669;SDS011;53568;52.164;4.472;2023-08-20T02:56:09;3.60;;;3.38;;
66669;SDS011;53568;52.164;4.472;2023-08-20T02:58:34;3.52;;;3.22;;
66669;SDS011;53568;52.164;4.472;2023-08-20T03:01:00;4.03;;;3.61;;
66669;SDS011;53568;52.164;4.472;2023-08-20T03:03:25;3.83;;;3.35;;
66669;SDS011;53568;52.164;4.472;2023-08-20T03:05:51;4.24;;;3.63;;
66669;SDS011;53568;52.164;4.472;2023-08-20T03:08:16;3.64;;;3.20;;
66669;SDS011;53568;52.164;4.472;2023-08-20T03:10:42;3.87;;;3.49;;
66669;SDS011;53568;52.164;4.472;2023-08-20T03:13:07;3.87;;;3.51;;
66669;SDS011;53568;52.164;4.472;2023-08-20T03:15:33;3.81;;;3.41;;
66669;SDS011;53568;52.164;4.472;2023-08-20T03:17:59;3.98;;;3.53;;
66669;SDS011;53568;52.164;4.472;2023-08-20T03:20:24;3.66;;;3.26;;
66669;SDS011;53568;52.164;4.472;2023-08-20T03:22:50;3.83;;;3.43;;
66669;SDS011;53568;52.164;4.472;2023-08-20T03:25:15;3.79;;;3.36;;
66669;SDS011;53568;52.164;4.472;2023-08-20T03:27:41;3.76;;;3.36;;
66669;SDS011;53568;52.164;4.472;2023-08-20T03:30:06;4.10;;;3.64;;
66669;SDS011;53568;52.164;4.472;2023-08-20T03:32:32;3.93;;;3.47;;
66669;SDS011;53568;52.164;4.472;2023-08-20T03:34:58;4.69;;;4.12;;
66669;SDS011;53568;52.164;4.472;2023-08-20T03:37:27;4.52;;;3.99;;
66669;SDS011;53568;52.164;4.472;2023-08-20T03:39:52;4.59;;;4.18;;
66669;SDS011;53568;52.164;4.472;2023-08-20T03:42:18;3.77;;;3.44;;
66669;SDS011;53568;52.164;4.472;2023-08-20T03:44:43;3.85;;;3.39;;
66669;SDS011;53568;52.164;4.472;2023-08-20T03:47:09;3.65;;;3.22;;
66669;SDS011;53568;52.164;4.472;2023-08-20T03:49:34;3.70;;;3.37;;
66669;SDS011;53568;52.164;4.472;2023-08-20T03:52:00;6.30;;;5.40;;
66669;SDS011;53568;52.164;4.472;2023-08-20T03:54:28;6.50;;;5.25;;
66669;SDS011;53568;52.164;4.472;2023-08-20T03:56:54;5.33;;;4.49;;
66669;SDS011;53568;52.164;4.472;2023-08-20T03:59:20;4.53;;;3.92;;
66669;SDS011;53568;52.164;4.472;2023-08-20T04:01:46;4.28;;;3.79;;
66669;SDS011;53568;52.164;4.472;2023-08-20T04:04:12;3.78;;;3.49;;
66669;SDS011;53568;52.164;4.472;2023-08-20T04:06:37;3.42;;;3.17;;
66669;SDS011;53568;52.164;4.472;2023-08-20T04:09:03;3.46;;;3.17;;
66669;SDS011;53568;52.164;4.472;2023-08-20T04:11:29;3.53;;;3.18;;
66669;SDS011;53568;52.164;4.472;2023-08-20T04:13:54;3.69;;;3.34;;
66669;SDS011;53568;52.164;4.472;2023-08-20T04:16:20;3.92;;;3.56;;
66669;SDS011;53568;52.164;4.472;2023-08-20T04:18:45;3.65;;;3.29;;
66669;SDS011;53568;52.164;4.472;2023-08-20T04:21:11;3.76;;;3.34;;
66669;SDS011;53568;52.164;4.472;2023-08-20T04:23:36;3.79;;;3.38;;
66669;SDS011;53568;52.164;4.472;2023-08-20T04:26:02;4.25;;;3.71;;
66669;SDS011;53568;52.164;4.472;2023-08-20T04:28:27;4.19;;;3.72;;
66669;SDS011;53568;52.164;4.472;2023-08-20T04:30:53;3.82;;;3.39;;
66669;SDS011;53568;52.164;4.472;2023-08-20T04:33:19;3.74;;;3.38;;
66669;SDS011;53568;52.164;4.472;2023-08-20T04:35:45;3.57;;;3.24;;
66669;SDS011;53568;52.164;4.472;2023-08-20T04:38:11;3.70;;;3.37;;
66669;SDS011;53568;52.164;4.472;2023-08-20T04:40:37;3.79;;;3.47;;
66669;SDS011;53568;52.164;4.472;2023-08-20T04:43:02;3.59;;;3.28;;
66669;SDS011;53568;52.164;4.472;2023-08-20T04:45:28;3.78;;;3.46;;
66669;SDS011;53568;52.164;4.472;2023-08-20T04:47:54;3.81;;;3.46;;
66669;SDS011;53568;52.164;4.472;2023-08-20T04:50:19;3.92;;;3.57;;
66669;SDS011;53568;52.164;4.472;2023-08-20T04:52:45;3.78;;;3.54;;
66669;SDS011;53568;52.164;4.472;2023-08-20T04:55:10;3.70;;;3.49;;
66669;SDS011;53568;52.164;4.472;2023-08-20T04:57:36;3.61;;;3.31;;
66669;SDS011;53568;52.164;4.472;2023-08-20T05:00:02;3.72;;;3.36;;
66669;SDS011;53568;52.164;4.472;2023-08-20T05:02:28;3.88;;;3.56;;
66669;SDS011;53568;52.164;4.472;2023-08-20T05:04:53;3.77;;;3.45;;
66669;SDS011;53568;52.164;4.472;2023-08-20T05:07:19;4.30;;;3.90;;
66669;SDS011;53568;52.164;4.472;2023-08-20T05:09:45;4.29;;;3.85;;
66669;SDS011;53568;52.164;4.472;2023-08-20T05:12:11;3.81;;;3.48;;
66669;SDS011;53568;52.164;4.472;2023-08-20T05:14:36;3.83;;;3.44;;
66669;SDS011;53568;52.164;4.472;2023-08-20T05:17:02;4.02;;;3.64;;
66669;SDS011;53568;52.164;4.472;2023-08-20T05:19:27;3.75;;;3.43;;
66669;SDS011;53568;52.164;4.472;2023-08-20T05:21:53;3.86;;;3.45;;
66669;SDS011;53568;52.164;4.472;2023-08-20T05:24:21;3.86;;;3.43;;
66669;SDS011;53568;52.164;4.472;2023-08-20T05:26:49;3.93;;;3.49;;
66669;SDS011;53568;52.164;4.472;2023-08-20T05:29:36;4.13;;;3.69;;
66669;SDS011;53568;52.164;4.472;2023-08-20T05:32:02;3.89;;;3.53;;
66669;SDS011;53568;52.164;4.472;2023-08-20T05:34:28;3.56;;;3.24;;
66669;SDS011;53568;52.164;4.472;2023-08-20T05:36:54;3.50;;;3.33;;
66669;SDS011;53568;52.164;4.472;2023-08-20T05:39:19;3.72;;;3.42;;
66669;SDS011;53568;52.164;4.472;2023-08-20T05:41:45;4.01;;;3.66;;
66669;SDS011;53568;52.164;4.472;2023-08-20T05:44:10;4.11;;;3.72;;
66669;SDS011;53568;52.164;4.472;2023-08-20T05:46:36;4.19;;;3.79;;
66669;SDS011;53568;52.164;4.472;2023-08-20T05:49:01;3.80;;;3.43;;
66669;SDS011;53568;52.164;4.472;2023-08-20T05:51:27;3.86;;;3.53;;
66669;SDS011;53568;52.164;4.472;2023-08-20T05:53:53;3.78;;;3.44;;
66669;SDS011;53568;52.164;4.472;2023-08-20T05:56:18;3.52;;;3.20;;
66669;SDS011;53568;52.164;4.472;2023-08-20T05:58:44;4.07;;;3.71;;
66669;SDS011;53568;52.164;4.472;2023-08-20T06:01:09;3.87;;;3.52;;
66669;SDS011;53568;52.164;4.472;2023-08-20T06:03:35;4.09;;;3.74;;
66669;SDS011;53568;52.164;4.472;2023-08-20T06:06:00;4.32;;;3.86;;
66669;SDS011;53568;52.164;4.472;2023-08-20T06:08:26;4.27;;;3.69;;
66669;SDS011;53568;52.164;4.472;2023-08-20T06:10:51;4.26;;;3.75;;
66669;SDS011;53568;52.164;4.472;2023-08-20T06:13:17;3.91;;;3.40;;
66669;SDS011;53568;52.164;4.472;2023-08-20T06:15:43;3.88;;;3.35;;
66669;SDS011;53568;52.164;4.472;2023-08-20T06:18:08;3.66;;;3.11;;
66669;SDS011;53568;52.164;4.472;2023-08-20T06:20:34;4.52;;;3.82;;
66669;SDS011;53568;52.164;4.472;2023-08-20T06:22:59;4.23;;;3.68;;
66669;SDS011;53568;52.164;4.472;2023-08-20T06:25:25;3.78;;;3.33;;
66669;SDS011;53568;52.164;4.472;2023-08-20T06:27:50;3.46;;;3.11;;
66669;SDS011;53568;52.164;4.472;2023-08-20T06:30:16;3.80;;;3.39;;
66669;SDS011;53568;52.164;4.472;2023-08-20T06:32:42;4.05;;;3.60;;
66669;SDS011;53568;52.164;4.472;2023-08-20T06:35:09;4.19;;;3.74;;
66669;SDS011;53568;52.164;4.472;2023-08-20T06:37:35;4.48;;;3.95;;
66669;SDS011;53568;52.164;4.472;2023-08-20T06:40:00;4.05;;;3.60;;
66669;SDS011;53568;52.164;4.472;2023-08-20T06:42:26;3.91;;;3.45;;
66669;SDS011;53568;52.164;4.472;2023-08-20T06:44:51;4.29;;;3.83;;
66669;SDS011;53568;52.164;4.472;2023-08-20T06:47:17;3.97;;;3.51;;
66669;SDS011;53568;52.164;4.472;2023-08-20T06:49:42;3.90;;;3.49;;
66669;SDS011;53568;52.164;4.472;2023-08-20T06:52:08;3.98;;;3.58;;
66669;SDS011;53568;52.164;4.472;2023-08-20T06:54:33;3.74;;;3.36;;
66669;SDS011;53568;52.164;4.472;2023-08-20T06:56:59;3.77;;;3.36;;
66669;SDS011;53568;52.164;4.472;2023-08-20T06:59:24;4.15;;;3.59;;
66669;SDS011;53568;52.164;4.472;2023-08-20T07:01:50;3.96;;;3.42;;
66669;SDS011;53568;52.164;4.472;2023-08-20T07:04:15;4.30;;;3.72;;
66669;SDS011;53568;52.164;4.472;2023-08-20T07:06:41;3.94;;;3.44;;
66669;SDS011;53568;52.164;4.472;2023-08-20T07:09:06;3.99;;;3.54;;
66669;SDS011;53568;52.164;4.472;2023-08-20T07:11:32;3.96;;;3.36;;
66669;SDS011;53568;52.164;4.472;2023-08-20T07:13:58;4.19;;;3.48;;
66669;SDS011;53568;52.164;4.472;2023-08-20T07:16:23;4.35;;;3.60;;
66669;SDS011;53568;52.164;4.472;2023-08-20T07:18:49;4.63;;;3.81;;
66669;SDS011;53568;52.164;4.472;2023-08-20T07:21:14;3.96;;;3.33;;
66669;SDS011;53568;52.164;4.472;2023-08-20T07:23:40;3.99;;;3.43;;
66669;SDS011;53568;52.164;4.472;2023-08-20T07:26:07;3.58;;;3.10;;
66669;SDS011;53568;52.164;4.472;2023-08-20T07:28:35;3.78;;;3.27;;
66669;SDS011;53568;52.164;4.472;2023-08-20T07:31:19;3.57;;;3.00;;
66669;SDS011;53568;52.164;4.472;2023-08-20T07:33:46;4.01;;;3.32;;
66669;SDS011;53568;52.164;4.472;2023-08-20T07:36:13;4.58;;;3.62;;
66669;SDS011;53568;52.164;4.472;2023-08-20T07:38:39;3.92;;;3.10;;
66669;SDS011;53568;52.164;4.472;2023-08-20T07:41:06;4.45;;;3.53;;
66669;SDS011;53568;52.164;4.472;2023-08-20T07:43:32;4.19;;;3.38;;
66669;SDS011;53568;52.164;4.472;2023-08-20T07:45:57;4.01;;;3.27;;
66669;SDS011;53568;52.164;4.472;2023-08-20T07:48:23;4.12;;;3.31;;
66669;SDS011;53568;52.164;4.472;2023-08-20T07:50:48;3.84;;;3.16;;
66669;SDS011;53568;52.164;4.472;2023-08-20T07:53:14;3.96;;;3.21;;
66669;SDS011;53568;52.164;4.472;2023-08-20T07:55:39;3.76;;;3.07;;
66669;SDS011;53568;52.164;4.472;2023-08-20T07:58:05;3.75;;;3.07;;
66669;SDS011;53568;52.164;4.472;2023-08-20T08:00:30;4.04;;;3.20;;
66669;SDS011;53568;52.164;4.472;2023-08-20T08:02:56;3.79;;;2.94;;
66669;SDS011;53568;52.164;4.472;2023-08-20T08:05:21;3.78;;;2.98;;
66669;SDS011;53568;52.164;4.472;2023-08-20T08:07:47;4.14;;;3.23;;
66669;SDS011;53568;52.164;4.472;2023-08-20T08:10:12;3.94;;;3.01;;
66669;SDS011;53568;52.164;4.472;2023-08-20T08:12:38;4.43;;;3.27;;
66669;SDS011;53568;52.164;4.472;2023-08-20T08:15:04;4.59;;;3.33;;
66669;SDS011;53568;52.164;4.472;2023-08-20T08:17:29;4.48;;;3.26;;
66669;SDS011;53568;52.164;4.472;2023-08-20T08:19:55;4.11;;;3.04;;
66669;SDS011;53568;52.164;4.472;2023-08-20T08:22:21;4.25;;;3.12;;
66669;SDS011;53568;52.164;4.472;2023-08-20T08:24:47;4.27;;;3.15;;
66669;SDS011;53568;52.164;4.472;2023-08-20T08:27:12;4.47;;;3.29;;
66669;SDS011;53568;52.164;4.472;2023-08-20T08:29:38;4.40;;;3.21;;
66669;SDS011;53568;52.164;4.472;2023-08-20T08:32:03;4.26;;;3.12;;
66669;SDS011;53568;52.164;4.472;2023-08-20T08:34:29;4.02;;;2.96;;
66669;SDS011;53568;52.164;4.472;2023-08-20T08:36:54;4.10;;;3.04;;
66669;SDS011;53568;52.164;4.472;2023-08-20T08:39:20;4.12;;;3.05;;
66669;SDS011;53568;52.164;4.472;2023-08-20T08:41:46;3.87;;;2.85;;
66669;SDS011;53568;52.164;4.472;2023-08-20T08:44:16;3.98;;;2.95;;
66669;SDS011;53568;52.164;4.472;2023-08-20T08:46:42;4.08;;;3.03;;
66669;SDS011;53568;52.164;4.472;2023-08-20T08:49:07;3.94;;;2.90;;
66669;SDS011;53568;52.164;4.472;2023-08-20T08:51:34;3.66;;;2.72;;
66669;SDS011;53568;52.164;4.472;2023-08-20T08:54:02;3.67;;;2.80;;
66669;SDS011;53568;52.164;4.472;2023-08-20T08:56:28;3.85;;;2.91;;
66669;SDS011;53568;52.164;4.472;2023-08-20T08:58:54;4.20;;;3.10;;
66669;SDS011;53568;52.164;4.472;2023-08-20T09:01:19;4.23;;;3.06;;
66669;SDS011;53568;52.164;4.472;2023-08-20T09:03:46;4.23;;;3.09;;
66669;SDS011;53568;52.164;4.472;2023-08-20T09:06:12;4.23;;;3.12;;
66669;SDS011;53568;52.164;4.472;2023-08-20T09:08:38;4.44;;;3.18;;
66669;SDS011;53568;52.164;4.472;2023-08-20T09:11:03;4.68;;;3.27;;
66669;SDS011;53568;52.164;4.472;2023-08-20T09:13:33;5.33;;;3.68;;
66669;SDS011;53568;52.164;4.472;2023-08-20T09:16:06;4.80;;;3.37;;
66669;SDS011;53568;52.164;4.472;2023-08-20T09:18:34;4.56;;;3.25;;
66669;SDS011;53568;52.164;4.472;2023-08-20T09:21:10;4.85;;;3.45;;
66669;SDS011;53568;52.164;4.472;2023-08-20T09:23:38;4.63;;;3.32;;
66669;SDS011;53568;52.164;4.472;2023-08-20T09:26:05;4.27;;;3.15;;
66669;SDS011;53568;52.164;4.472;2023-08-20T09:28:41;4.15;;;3.01;;
66669;SDS011;53568;52.164;4.472;2023-08-20T09:31:09;4.05;;;3.02;;
66669;SDS011;53568;52.164;4.472;2023-08-20T09:33:34;3.60;;;2.73;;
66669;SDS011;53568;52.164;4.472;2023-08-20T09:36:02;3.61;;;2.69;;
66669;SDS011;53568;52.164;4.472;2023-08-20T09:38:29;3.72;;;2.79;;
66669;SDS011;53568;52.164;4.472;2023-08-20T09:40:55;4.08;;;3.04;;
66669;SDS011;53568;52.164;4.472;2023-08-20T09:43:23;4.13;;;3.01;;
66669;SDS011;53568;52.164;4.472;2023-08-20T09:45:54;3.96;;;2.92;;
66669;SDS011;53568;52.164;4.472;2023-08-20T09:48:21;4.22;;;3.09;;
66669;SDS011;53568;52.164;4.472;2023-08-20T09:50:47;4.14;;;3.01;;
66669;SDS011;53568;52.164;4.472;2023-08-20T09:53:27;3.74;;;2.70;;
66669;SDS011;53568;52.164;4.472;2023-08-20T09:56:09;4.07;;;2.95;;
66669;SDS011;53568;52.164;4.472;2023-08-20T09:58:43;3.96;;;2.85;;
66669;SDS011;53568;52.164;4.472;2023-08-20T10:01:09;4.07;;;2.93;;
66669;SDS011;53568;52.164;4.472;2023-08-20T10:03:35;3.96;;;2.90;;
66669;SDS011;53568;52.164;4.472;2023-08-20T10:06:03;3.78;;;2.78;;
66669;SDS011;53568;52.164;4.472;2023-08-20T10:08:29;3.95;;;2.91;;
66669;SDS011;53568;52.164;4.472;2023-08-20T10:10:55;4.23;;;3.09;;
66669;SDS011;53568;52.164;4.472;2023-08-20T10:13:21;4.31;;;3.11;;
66669;SDS011;53568;52.164;4.472;2023-08-20T10:15:46;4.50;;;3.24;;
66669;SDS011;53568;52.164;4.472;2023-08-20T10:18:13;4.08;;;2.98;;
66669;SDS011;53568;52.164;4.472;2023-08-20T10:20:39;4.50;;;3.22;;
66669;SDS011;53568;52.164;4.472;2023-08-20T10:23:08;4.60;;;3.33;;
66669;SDS011;53568;52.164;4.472;2023-08-20T10:25:43;3.79;;;2.82;;
66669;SDS011;53568;52.164;4.472;2023-08-20T10:28:21;3.77;;;2.82;;
66669;SDS011;53568;52.164;4.472;2023-08-20T10:34:15;3.60;;;2.73;;
66669;SDS011;53568;52.164;4.472;2023-08-20T10:36:23;3.73;;;2.79;;
66669;SDS011;53568;52.164;4.472;2023-08-20T10:38:53;4.03;;;2.95;;
66669;SDS011;53568;52.164;4.472;2023-08-20T10:41:25;3.80;;;2.80;;
66669;SDS011;53568;52.164;4.472;2023-08-20T10:43:51;3.76;;;2.80;;
66669;SDS011;53568;52.164;4.472;2023-08-20T10:46:18;4.06;;;3.00;;
66669;SDS011;53568;52.164;4.472;2023-08-20T10:51:31;3.84;;;2.82;;
66669;SDS011;53568;52.164;4.472;2023-08-20T10:59:09;3.36;;;2.45;;
66669;SDS011;53568;52.164;4.472;2023-08-20T11:01:44;3.96;;;2.89;;
66669;SDS011;53568;52.164;4.472;2023-08-20T11:04:12;3.54;;;2.61;;
66669;SDS011;53568;52.164;4.472;2023-08-20T11:06:38;3.07;;;2.29;;
66669;SDS011;53568;52.164;4.472;2023-08-20T11:09:04;3.48;;;2.55;;
66669;SDS011;53568;52.164;4.472;2023-08-20T11:11:33;3.42;;;2.46;;
66669;SDS011;53568;52.164;4.472;2023-08-20T11:14:05;3.45;;;2.49;;
66669;SDS011;53568;52.164;4.472;2023-08-20T11:16:33;2.94;;;2.15;;
66669;SDS011;53568;52.164;4.472;2023-08-20T11:19:00;3.56;;;2.59;;
66669;SDS011;53568;52.164;4.472;2023-08-20T11:21:28;3.29;;;2.34;;
66669;SDS011;53568;52.164;4.472;2023-08-20T11:23:54;3.01;;;2.15;;
66669;SDS011;53568;52.164;4.472;2023-08-20T11:26:20;3.10;;;2.28;;
66669;SDS011;53568;52.164;4.472;2023-08-20T11:28:46;3.28;;;2.37;;
66669;SDS011;53568;52.164;4.472;2023-08-20T11:31:12;2.80;;;2.04;;
66669;SDS011;53568;52.164;4.472;2023-08-20T11:33:38;2.90;;;2.13;;
66669;SDS011;53568;52.164;4.472;2023-08-20T11:36:06;2.70;;;2.00;;
66669;SDS011;53568;52.164;4.472;2023-08-20T11:38:32;2.66;;;1.97;;
66669;SDS011;53568;52.164;4.472;2023-08-20T11:40:58;2.93;;;2.16;;
66669;SDS011;53568;52.164;4.472;2023-08-20T11:43:26;2.64;;;1.95;;
66669;SDS011;53568;52.164;4.472;2023-08-20T11:45:52;2.67;;;1.94;;
66669;SDS011;53568;52.164;4.472;2023-08-20T11:48:19;2.70;;;1.95;;
66669;SDS011;53568;52.164;4.472;2023-08-20T11:50:51;2.68;;;1.91;;
66669;SDS011;53568;52.164;4.472;2023-08-20T11:53:23;2.94;;;2.11;;
66669;SDS011;53568;52.164;4.472;2023-08-20T11:55:49;2.74;;;1.98;;
66669;SDS011;53568;52.164;4.472;2023-08-20T11:58:15;2.93;;;2.08;;
66669;SDS011;53568;52.164;4.472;2023-08-20T12:00:40;2.98;;;2.14;;
66669;SDS011;53568;52.164;4.472;2023-08-20T12:03:07;3.04;;;2.22;;
66669;SDS011;53568;52.164;4.472;2023-08-20T12:05:33;2.70;;;1.95;;
66669;SDS011;53568;52.164;4.472;2023-08-20T12:08:00;3.06;;;2.24;;
66669;SDS011;53568;52.164;4.472;2023-08-20T12:10:27;2.98;;;2.15;;
66669;SDS011;53568;52.164;4.472;2023-08-20T12:12:55;2.86;;;2.09;;
66669;SDS011;53568;52.164;4.472;2023-08-20T12:15:22;2.80;;;2.05;;
66669;SDS011;53568;52.164;4.472;2023-08-20T12:18:04;2.31;;;1.70;;
66669;SDS011;53568;52.164;4.472;2023-08-20T12:20:32;3.14;;;2.33;;
66669;SDS011;53568;52.164;4.472;2023-08-20T12:23:01;2.88;;;2.13;;
66669;SDS011;53568;52.164;4.472;2023-08-20T12:25:29;3.04;;;2.23;;
66669;SDS011;53568;52.164;4.472;2023-08-20T12:27:57;2.70;;;1.99;;
66669;SDS011;53568;52.164;4.472;2023-08-20T12:30:22;2.89;;;2.15;;
66669;SDS011;53568;52.164;4.472;2023-08-20T12:32:48;2.61;;;1.92;;
66669;SDS011;53568;52.164;4.472;2023-08-20T12:35:14;3.01;;;2.23;;
66669;SDS011;53568;52.164;4.472;2023-08-20T12:37:42;3.23;;;2.33;;
66669;SDS011;53568;52.164;4.472;2023-08-20T12:40:08;3.11;;;2.20;;
66669;SDS011;53568;52.164;4.472;2023-08-20T12:42:38;3.18;;;2.22;;
66669;SDS011;53568;52.164;4.472;2023-08-20T12:45:07;2.91;;;2.06;;
66669;SDS011;53568;52.164;4.472;2023-08-20T12:47:33;2.90;;;2.06;;
66669;SDS011;53568;52.164;4.472;2023-08-20T12:49:59;3.29;;;2.34;;
66669;SDS011;53568;52.164;4.472;2023-08-20T12:52:25;2.64;;;1.85;;
66669;SDS011;53568;52.164;4.472;2023-08-20T12:54:51;3.00;;;2.10;;
66669;SDS011;53568;52.164;4.472;2023-08-20T12:57:16;2.75;;;1.96;;
66669;SDS011;53568;52.164;4.472;2023-08-20T12:59:42;2.74;;;1.98;;
66669;SDS011;53568;52.164;4.472;2023-08-20T13:02:07;2.75;;;1.99;;
66669;SDS011;53568;52.164;4.472;2023-08-20T13:04:33;2.35;;;1.74;;
66669;SDS011;53568;52.164;4.472;2023-08-20T13:06:59;2.75;;;2.03;;
66669;SDS011;53568;52.164;4.472;2023-08-20T13:09:26;2.62;;;1.94;;
66669;SDS011;53568;52.164;4.472;2023-08-20T13:11:53;2.70;;;1.97;;
66669;SDS011;53568;52.164;4.472;2023-08-20T13:14:22;2.76;;;2.00;;
66669;SDS011;53568;52.164;4.472;2023-08-20T13:16:48;2.57;;;1.88;;
66669;SDS011;53568;52.164;4.472;2023-08-20T13:19:14;3.00;;;2.18;;
66669;SDS011;53568;52.164;4.472;2023-08-20T13:21:40;2.74;;;1.96;;
66669;SDS011;53568;52.164;4.472;2023-08-20T13:24:06;2.43;;;1.75;;
66669;SDS011;53568;52.164;4.472;2023-08-20T13:26:32;2.22;;;1.62;;
66669;SDS011;53568;52.164;4.472;2023-08-20T13:28:57;2.52;;;1.79;;
66669;SDS011;53568;52.164;4.472;2023-08-20T13:31:23;2.68;;;1.89;;
66669;SDS011;53568;52.164;4.472;2023-08-20T13:33:48;2.51;;;1.78;;
66669;SDS011;53568;52.164;4.472;2023-08-20T13:36:14;2.39;;;1.71;;
66669;SDS011;53568;52.164;4.472;2023-08-20T13:38:41;2.83;;;2.00;;
66669;SDS011;53568;52.164;4.472;2023-08-20T13:41:06;2.78;;;1.96;;
66669;SDS011;53568;52.164;4.472;2023-08-20T13:43:33;2.53;;;1.79;;
66669;SDS011;53568;52.164;4.472;2023-08-20T13:45:58;2.70;;;1.91;;
66669;SDS011;53568;52.164;4.472;2023-08-20T13:48:24;3.00;;;2.12;;
66669;SDS011;53568;52.164;4.472;2023-08-20T13:50:49;2.42;;;1.73;;
66669;SDS011;53568;52.164;4.472;2023-08-20T13:53:15;2.43;;;1.73;;
66669;SDS011;53568;52.164;4.472;2023-08-20T13:55:40;2.48;;;1.79;;
66669;SDS011;53568;52.164;4.472;2023-08-20T13:58:06;2.63;;;1.89;;
66669;SDS011;53568;52.164;4.472;2023-08-20T14:00:32;2.78;;;1.96;;
66669;SDS011;53568;52.164;4.472;2023-08-20T14:02:57;2.64;;;1.88;;
66669;SDS011;53568;52.164;4.472;2023-08-20T14:05:23;2.83;;;2.02;;
66669;SDS011;53568;52.164;4.472;2023-08-20T14:07:49;2.36;;;1.70;;
66669;SDS011;53568;52.164;4.472;2023-08-20T14:10:15;2.74;;;1.99;;
66669;SDS011;53568;52.164;4.472;2023-08-20T14:12:41;2.56;;;1.85;;
66669;SDS011;53568;52.164;4.472;2023-08-20T14:15:06;2.52;;;1.84;;
66669;SDS011;53568;52.164;4.472;2023-08-20T14:17:33;2.33;;;1.69;;
66669;SDS011;53568;52.164;4.472;2023-08-20T14:19:58;2.01;;;1.45;;
66669;SDS011;53568;52.164;4.472;2023-08-20T14:22:24;2.13;;;1.55;;
66669;SDS011;53568;52.164;4.472;2023-08-20T14:24:50;1.83;;;1.32;;
66669;SDS011;53568;52.164;4.472;2023-08-20T14:27:16;2.02;;;1.46;;
66669;SDS011;53568;52.164;4.472;2023-08-20T14:29:41;2.32;;;1.69;;
66669;SDS011;53568;52.164;4.472;2023-08-20T14:32:07;2.16;;;1.57;;
66669;SDS011;53568;52.164;4.472;2023-08-20T14:34:32;2.01;;;1.48;;
66669;SDS011;53568;52.164;4.472;2023-08-20T14:36:58;2.01;;;1.49;;
66669;SDS011;53568;52.164;4.472;2023-08-20T14:39:23;2.43;;;1.78;;
66669;SDS011;53568;52.164;4.472;2023-08-20T14:41:49;2.66;;;1.93;;
66669;SDS011;53568;52.164;4.472;2023-08-20T14:44:15;2.35;;;1.69;;
66669;SDS011;53568;52.164;4.472;2023-08-20T14:46:40;2.06;;;1.48;;
66669;SDS011;53568;52.164;4.472;2023-08-20T14:49:05;2.67;;;1.95;;
66669;SDS011;53568;52.164;4.472;2023-08-20T14:51:31;2.22;;;1.64;;
66669;SDS011;53568;52.164;4.472;2023-08-20T14:53:56;2.05;;;1.58;;
66669;SDS011;53568;52.164;4.472;2023-08-20T14:56:22;2.67;;;2.08;;
66669;SDS011;53568;52.164;4.472;2023-08-20T14:58:48;2.24;;;1.76;;
66669;SDS011;53568;52.164;4.472;2023-08-20T15:01:14;2.33;;;1.89;;